createdAt,value
2018-01-15T00:00:17.722Z,52.87
2018-01-15T00:02:44.076Z,52.78
2018-01-15T00:05:10.409Z,52.76
2018-01-15T00:07:36.703Z,53.92
2018-01-15T00:10:03.064Z,53.59
2018-01-15T00:12:29.364Z,53.57
2018-01-15T00:14:56.358Z,53.50
2018-01-15T00:17:22.668Z,53.29
2018-01-15T00:19:48.973Z,53.11
2018-01-15T00:22:15.976Z,53.39
2018-01-15T00:24:42.307Z,53.01
2018-01-15T00:27:08.560Z,54.05
2018-01-15T00:29:34.836Z,53.56
2018-01-15T00:32:01.184Z,53.21
2018-01-15T00:34:27.509Z,53.36
2018-01-15T00:36:53.766Z,53.98
2018-01-15T00:39:20.029Z,54.43
2018-01-15T00:41:46.343Z,53.69
2018-01-15T00:44:12.639Z,53.25
2018-01-15T00:46:38.988Z,53.89
2018-01-15T00:49:05.263Z,54.14
2018-01-15T00:51:32.295Z,54.17
2018-01-15T00:53:58.609Z,53.84
2018-01-15T00:56:24.891Z,53.55
2018-01-15T00:58:51.175Z,53.26
2018-01-15T01:01:18.219Z,54.05
2018-01-15T01:03:44.509Z,54.27
2018-01-15T01:06:10.799Z,53.72
2018-01-15T01:08:37.879Z,53.63
2018-01-15T01:11:04.142Z,53.36
2018-01-15T01:13:30.402Z,53.34
2018-01-15T01:15:57.432Z,53.61
2018-01-15T01:18:23.768Z,53.73
2018-01-15T01:20:50.068Z,53.53
2018-01-15T01:23:16.349Z,53.53
2018-01-15T01:25:43.436Z,53.88
2018-01-15T01:28:09.736Z,53.51
2018-01-15T01:30:36.754Z,54.06
2018-01-15T01:33:03.064Z,54.03
2018-01-15T01:35:29.469Z,53.90
2018-01-15T01:37:55.729Z,54.07
2018-01-15T01:40:22.815Z,54.04
2018-01-15T01:42:50.410Z,53.75
2018-01-15T01:45:16.681Z,54.14
2018-01-15T01:47:42.982Z,54.11
2018-01-15T01:50:09.275Z,54.13
2018-01-15T01:52:35.579Z,53.62
2018-01-15T01:55:01.879Z,53.47
2018-01-15T01:57:28.188Z,53.15
2018-01-15T01:59:58.212Z,53.55
2018-01-15T02:05:08.221Z,53.76
2018-01-15T02:10:12.076Z,54.24
2018-01-15T02:12:38.410Z,54.15
2018-01-15T02:15:05.399Z,53.92
2018-01-15T02:17:32.591Z,53.86
2018-01-15T02:19:59.695Z,54.17
2018-01-15T02:22:26.809Z,54.39
2018-01-15T02:24:53.791Z,54.47
2018-01-15T02:27:20.170Z,55.55
2018-01-15T02:29:47.263Z,55.12
2018-01-15T02:32:13.558Z,54.03
2018-01-15T02:34:40.608Z,54.00
2018-01-15T02:37:07.579Z,53.97
2018-01-15T02:39:33.922Z,54.07
2018-01-15T02:42:00.151Z,53.81
2018-01-15T02:44:26.461Z,54.49
2018-01-15T02:46:52.699Z,54.27
2018-01-15T02:49:19.073Z,53.83
2018-01-15T02:51:45.310Z,53.47
2018-01-15T02:54:11.637Z,53.74
2018-01-15T02:56:37.874Z,53.62
2018-01-15T02:59:04.164Z,54.10
2018-01-15T03:01:30.417Z,54.06
2018-01-15T03:03:56.728Z,53.78
2018-01-15T03:06:23.003Z,54.05
2018-01-15T03:08:50.049Z,53.98
2018-01-15T03:11:16.327Z,54.50
2018-01-15T03:13:42.617Z,54.79
2018-01-15T03:16:09.695Z,54.79
2018-01-15T03:18:35.957Z,55.22
2018-01-15T03:21:02.289Z,55.28
2018-01-15T03:23:28.541Z,55.28
2018-01-15T03:25:54.818Z,54.72
2018-01-15T03:28:21.158Z,55.42
2018-01-15T03:30:47.376Z,55.49
2018-01-15T03:33:13.667Z,55.17
2018-01-15T03:35:39.937Z,54.85
2018-01-15T03:38:06.248Z,55.26
2018-01-15T03:40:32.534Z,55.39
2018-01-15T03:42:58.872Z,55.86
2018-01-15T03:45:25.184Z,55.50
2018-01-15T03:47:51.476Z,56.26
2018-01-15T03:50:17.778Z,55.92
2018-01-15T03:52:44.076Z,56.07
2018-01-15T03:55:10.540Z,56.35
2018-01-15T03:57:36.766Z,56.72
2018-01-15T04:00:04.557Z,55.88
2018-01-15T04:02:32.394Z,56.10
2018-01-15T04:04:58.647Z,56.17
2018-01-15T04:07:25.683Z,56.36
2018-01-15T04:09:52.111Z,56.68
2018-01-15T04:12:18.458Z,56.32
2018-01-15T04:14:45.489Z,56.88
2018-01-15T04:17:11.717Z,56.84
2018-01-15T04:19:38.013Z,57.57
2018-01-15T04:22:04.379Z,58.07
2018-01-15T04:24:30.603Z,58.57
2018-01-15T04:26:56.847Z,58.63
2018-01-15T04:29:23.132Z,58.44
2018-01-15T04:31:49.743Z,58.92
2018-01-15T04:34:16.178Z,58.79
2018-01-15T04:36:42.427Z,58.87
2018-01-15T04:39:08.730Z,59.35
2018-01-15T04:41:35.674Z,59.65
2018-01-15T04:44:02.865Z,60.20
2018-01-15T04:46:29.132Z,60.12
2018-01-15T04:48:55.362Z,59.88
2018-01-15T04:51:21.750Z,59.79
2018-01-15T04:53:48.011Z,59.81
2018-01-15T04:56:14.264Z,59.92
2018-01-15T04:58:41.258Z,60.09
2018-01-15T05:01:07.514Z,60.08
2018-01-15T05:03:33.766Z,60.67
2018-01-15T05:06:00.799Z,60.81
2018-01-15T05:08:27.047Z,60.86
2018-01-15T05:10:54.063Z,60.95
2018-01-15T05:13:20.313Z,60.57
2018-01-15T05:15:46.578Z,60.57
2018-01-15T05:18:12.899Z,60.59
2018-01-15T05:20:39.147Z,60.91
2018-01-15T05:23:05.415Z,61.32
2018-01-15T05:25:31.697Z,61.30
2018-01-15T05:27:59.001Z,61.16
2018-01-15T05:30:25.249Z,61.69
2018-01-15T05:32:52.288Z,61.84
2018-01-15T05:35:18.555Z,61.65
2018-01-15T05:37:44.929Z,62.10
2018-01-15T05:40:11.219Z,61.88
2018-01-15T05:42:37.550Z,61.92
2018-01-15T05:45:03.848Z,62.19
2018-01-15T05:47:30.122Z,62.29
2018-01-15T05:49:56.446Z,62.46
2018-01-15T05:52:22.724Z,62.20
2018-01-15T05:54:48.973Z,62.10
2018-01-15T05:57:16.102Z,62.47
2018-01-15T05:59:42.324Z,62.28
2018-01-15T06:02:08.572Z,62.37
2018-01-15T06:04:34.810Z,62.10
2018-01-15T06:07:01.833Z,62.02
2018-01-15T06:09:28.171Z,62.24
2018-01-15T06:11:54.480Z,62.58
2018-01-15T06:14:20.710Z,62.68
2018-01-15T06:16:46.976Z,62.83
2018-01-15T06:19:14.007Z,62.43
2018-01-15T06:21:40.321Z,62.38
2018-01-15T06:24:06.587Z,62.03
2018-01-15T06:26:33.611Z,61.95
2018-01-15T06:28:59.955Z,62.34
2018-01-15T06:31:26.287Z,62.58
2018-01-15T06:33:52.604Z,62.41
2018-01-15T06:36:18.864Z,62.88
2018-01-15T06:38:45.904Z,62.93
2018-01-15T06:41:12.923Z,63.01
2018-01-15T06:43:39.217Z,62.79
2018-01-15T06:46:05.490Z,63.11
2018-01-15T06:48:31.804Z,63.27
2018-01-15T06:50:58.129Z,63.25
2018-01-15T06:53:24.408Z,63.44
2018-01-15T06:55:51.399Z,63.09
2018-01-15T06:58:17.651Z,63.43
2018-01-15T07:00:43.961Z,63.59
2018-01-15T07:03:10.289Z,63.02
2018-01-15T07:05:36.532Z,63.19
2018-01-15T07:08:02.785Z,62.86
2018-01-15T07:10:29.039Z,63.27
2018-01-15T07:12:55.852Z,63.30
2018-01-15T07:15:22.119Z,63.75
2018-01-15T07:17:48.335Z,63.34
2018-01-15T07:20:15.352Z,63.29
2018-01-15T07:22:41.584Z,62.85
2018-01-15T07:25:07.859Z,62.97
2018-01-15T07:27:34.112Z,62.85
2018-01-15T07:30:00.404Z,62.74
2018-01-15T07:32:26.756Z,62.42
2018-01-15T07:34:53.015Z,62.38
2018-01-15T07:37:19.292Z,62.66
2018-01-15T07:39:46.286Z,62.41
2018-01-15T07:42:12.527Z,62.25
2018-01-15T07:44:38.772Z,62.23
2018-01-15T07:47:05.010Z,61.97
2018-01-15T07:49:31.368Z,61.63
2018-01-15T07:51:58.389Z,61.78
2018-01-15T07:54:24.989Z,61.34
2018-01-15T07:56:51.215Z,61.61
2018-01-15T07:59:17.509Z,61.43
2018-01-15T08:01:44.492Z,61.11
2018-01-15T08:04:10.763Z,60.87
2018-01-15T08:06:37.013Z,61.02
2018-01-15T08:09:03.984Z,60.84
2018-01-15T08:11:30.262Z,61.29
2018-01-15T08:13:56.524Z,61.01
2018-01-15T08:16:23.516Z,61.17
2018-01-15T08:18:49.818Z,60.97
2018-01-15T08:21:16.118Z,60.68
2018-01-15T08:23:43.347Z,60.52
2018-01-15T08:26:10.553Z,60.11
2018-01-15T08:28:36.817Z,59.67
2018-01-15T08:31:03.040Z,59.79
2018-01-15T08:33:29.358Z,59.96
2018-01-15T08:35:56.425Z,59.22
2018-01-15T08:38:22.675Z,59.47
2018-01-15T08:40:48.935Z,58.97
2018-01-15T08:43:15.170Z,58.95
2018-01-15T08:45:41.449Z,58.52
2018-01-15T08:48:07.691Z,58.24
2018-01-15T08:50:33.975Z,57.91
2018-01-15T08:53:00.215Z,57.60
2018-01-15T08:55:26.526Z,57.90
2018-01-15T08:57:52.831Z,57.56
2018-01-15T09:00:19.855Z,57.35
2018-01-15T09:02:46.108Z,57.36
2018-01-15T09:05:13.118Z,56.89
2018-01-15T09:07:39.342Z,56.59
2018-01-15T09:10:05.674Z,56.71
2018-01-15T09:12:31.969Z,56.21
2018-01-15T09:14:58.235Z,55.91
2018-01-15T09:17:24.510Z,55.84
2018-01-15T09:19:51.500Z,54.96
2018-01-15T09:22:17.784Z,55.56
2018-01-15T09:24:44.738Z,54.87
2018-01-15T09:27:11.754Z,54.62
2018-01-15T09:29:38.938Z,54.45
2018-01-15T09:32:05.943Z,54.01
2018-01-15T09:34:32.267Z,53.75
2018-01-15T09:36:58.599Z,54.20
2018-01-15T09:39:24.859Z,54.04
2018-01-15T09:41:51.871Z,53.80
2018-01-15T09:44:18.205Z,53.57
2018-01-15T09:46:44.468Z,52.76
2018-01-15T09:49:11.526Z,52.47
2018-01-15T09:51:38.577Z,52.63
2018-01-15T09:54:05.587Z,52.77
2018-01-15T09:56:31.819Z,52.71
2018-01-15T09:58:58.095Z,53.03
2018-01-15T10:01:24.331Z,53.23
2018-01-15T10:03:51.612Z,53.21
2018-01-15T10:06:17.810Z,52.53
2018-01-15T10:08:44.121Z,51.83
2018-01-15T10:11:11.115Z,51.89
2018-01-15T10:13:37.376Z,52.07
2018-01-15T10:16:03.692Z,51.55
2018-01-15T10:18:29.938Z,51.58
2018-01-15T10:20:56.967Z,52.02
2018-01-15T10:23:23.196Z,51.50
2018-01-15T10:25:49.472Z,51.41
2018-01-15T10:28:15.684Z,51.61
2018-01-15T10:30:42.663Z,51.45
2018-01-15T10:33:08.960Z,52.09
2018-01-15T10:35:35.232Z,52.39
2018-01-15T10:38:01.504Z,52.13
2018-01-15T10:40:27.736Z,51.49
2018-01-15T10:42:54.009Z,51.33
2018-01-15T10:45:20.305Z,50.95
2018-01-15T10:47:47.312Z,50.84
2018-01-15T10:50:13.571Z,50.89
2018-01-15T10:52:39.834Z,50.01
2018-01-15T10:55:06.061Z,49.55
2018-01-15T10:57:32.378Z,49.12
2018-01-15T10:59:59.371Z,48.98
2018-01-15T11:02:25.635Z,48.88
2018-01-15T11:04:51.905Z,48.22
2018-01-15T11:07:18.211Z,48.01
2018-01-15T11:09:45.203Z,47.78
2018-01-15T11:12:11.409Z,49.47
2018-01-15T11:14:37.672Z,48.66
2018-01-15T11:17:04.014Z,46.74
2018-01-15T11:19:30.298Z,44.92
2018-01-15T11:21:56.589Z,43.23
2018-01-15T11:24:22.837Z,41.38
2018-01-15T11:26:49.866Z,39.63
2018-01-15T11:29:16.162Z,37.34
2018-01-15T11:31:42.419Z,36.34
2018-01-15T11:34:08.687Z,36.06
2018-01-15T11:36:35.720Z,36.24
2018-01-15T11:41:34.829Z,37.11
2018-01-15T11:44:01.071Z,35.94
2018-01-15T11:46:28.106Z,34.52
2018-01-15T11:48:54.331Z,33.05
2018-01-15T11:51:21.303Z,31.40
2018-01-15T11:53:47.580Z,30.77
2018-01-15T11:56:13.833Z,27.54
2018-01-15T11:58:40.824Z,25.70
2018-01-15T12:01:07.183Z,24.76
2018-01-15T12:03:33.450Z,25.54
2018-01-15T12:05:59.676Z,24.91
2018-01-15T12:13:30.736Z,22.35
2018-01-15T12:15:57.003Z,21.38
2018-01-15T12:18:24.036Z,21.34
2018-01-15T12:20:58.108Z,21.50
2018-01-15T12:23:24.366Z,20.08
2018-01-15T12:28:23.346Z,18.30
2018-01-15T12:30:49.670Z,18.19
2018-01-15T12:33:15.942Z,18.34
2018-01-15T12:35:43.001Z,18.59
2018-01-15T12:40:42.114Z,18.40
2018-01-15T12:43:09.142Z,18.39
2018-01-15T12:45:35.396Z,19.19
2018-01-15T12:48:02.445Z,19.70
2018-01-15T12:50:29.409Z,20.21
2018-01-15T12:52:55.706Z,20.10
2018-01-15T13:02:58.972Z,28.51
2018-01-15T13:08:35.759Z,32.53
2018-01-15T13:11:02.788Z,34.32
2018-01-15T13:26:09.851Z,28.22
2018-01-15T13:38:44.348Z,22.20
2018-01-15T13:48:47.092Z,20.89
2018-01-15T13:51:14.181Z,20.39
2018-01-15T13:56:19.537Z,20.18
2018-01-15T14:24:07.432Z,39.62
2018-01-15T14:26:33.696Z,40.44
2018-01-15T14:29:00.169Z,41.47
2018-01-15T14:41:34.368Z,45.35
2018-01-15T14:46:33.343Z,46.19
2018-01-15T14:48:59.601Z,46.81
2018-01-15T14:51:26.624Z,47.19
2018-01-15T14:58:57.739Z,48.59
2018-01-15T15:01:24.268Z,49.17
2018-01-15T15:06:23.510Z,49.75
2018-01-15T15:08:49.940Z,50.46
2018-01-15T15:13:48.633Z,51.01
2018-01-15T15:18:47.843Z,52.85
2018-01-15T15:21:15.081Z,53.16
2018-01-15T15:23:42.119Z,53.88
2018-01-15T15:26:08.517Z,54.41
2018-01-15T15:28:34.813Z,54.96
2018-01-15T15:31:01.102Z,54.84
2018-01-15T15:33:27.454Z,55.47
2018-01-15T15:38:27.300Z,56.10
2018-01-15T15:48:30.343Z,56.68
2018-01-15T15:53:29.399Z,57.23
2018-01-15T15:58:27.900Z,57.05
2018-01-15T16:03:26.226Z,56.71
2018-01-15T16:08:24.519Z,57.28
2018-01-15T16:10:50.881Z,57.54
2018-01-15T16:15:49.316Z,57.33
2018-01-15T16:18:15.619Z,57.69
2018-01-15T16:35:55.640Z,58.91
2018-01-15T16:38:22.698Z,58.91
2018-01-15T16:40:50.636Z,58.65
2018-01-15T16:43:29.907Z,58.29
2018-01-15T16:48:29.546Z,58.73
2018-01-15T16:53:29.495Z,58.62
2018-01-15T17:03:44.758Z,58.95
2018-01-15T17:06:12.294Z,59.28
2018-01-15T17:21:37.449Z,58.45
2018-01-15T17:29:08.712Z,57.81
2018-01-15T17:34:08.491Z,57.19
2018-01-15T17:36:35.380Z,56.87
2018-01-15T17:46:49.196Z,56.85
2018-01-15T17:59:09.257Z,56.86
2018-01-15T18:06:41.872Z,56.55
2018-01-15T18:09:09.205Z,56.82
2018-01-15T18:11:37.562Z,56.82
2018-01-15T18:16:37.531Z,56.57
2018-01-15T18:19:05.999Z,56.43
2018-01-15T18:42:00.440Z,56.54
2018-01-15T18:47:15.609Z,56.20
2018-01-15T18:49:42.717Z,55.69
2018-01-15T18:54:44.227Z,55.17
2018-01-15T18:57:16.555Z,55.79
2018-01-15T19:04:56.332Z,56.36
2018-01-15T19:09:55.548Z,55.95
2018-01-15T19:20:00.467Z,56.06
2018-01-15T19:22:27.639Z,56.10
2018-01-15T19:24:55.397Z,55.96
2018-01-15T19:29:56.598Z,56.25
2018-01-15T19:32:23.388Z,56.42
2018-01-15T19:40:04.929Z,55.68
2018-01-15T19:42:33.880Z,56.01
2018-01-15T19:50:29.044Z,56.47
2018-01-15T19:53:04.158Z,55.85
2018-01-15T19:55:37.377Z,56.12
2018-01-15T20:11:22.431Z,57.34
2018-01-15T20:13:49.791Z,57.46
2018-01-15T20:18:50.475Z,57.40
2018-01-15T20:21:17.988Z,57.40
2018-01-15T20:26:28.200Z,57.44
2018-01-15T20:31:31.556Z,58.14
2018-01-15T20:33:59.216Z,58.23
2018-01-15T20:36:26.869Z,58.39
2018-01-15T20:38:54.767Z,58.38
2018-01-15T20:41:21.820Z,58.27
2018-01-15T20:54:03.169Z,58.44
2018-01-15T20:56:31.029Z,58.35
2018-01-15T20:58:58.613Z,58.33
2018-01-15T21:04:07.925Z,58.89
2018-01-15T21:11:41.270Z,59.26
2018-01-15T21:14:09.236Z,59.59
2018-01-15T21:26:48.716Z,58.82
2018-01-15T21:29:16.814Z,58.78
2018-01-15T21:34:19.818Z,59.02
2018-01-15T21:36:47.316Z,58.20
2018-01-15T21:39:14.760Z,58.67
2018-01-15T21:46:47.761Z,59.23
2018-01-15T21:49:15.375Z,58.74
2018-01-15T21:51:44.413Z,58.59
2018-01-15T21:56:47.208Z,58.76
2018-01-15T22:04:20.272Z,58.95
2018-01-15T22:06:47.459Z,58.65
2018-01-15T22:09:16.414Z,58.86
2018-01-15T22:27:05.097Z,58.96
2018-01-15T22:29:32.874Z,59.03
2018-01-15T22:34:35.392Z,59.11
2018-01-15T22:37:03.252Z,59.17
2018-01-15T22:49:52.647Z,58.21
2018-01-15T22:57:25.883Z,57.40
2018-01-15T22:59:54.600Z,57.36
2018-01-15T23:02:21.536Z,57.35
2018-01-15T23:09:55.384Z,57.65
2018-01-15T23:20:02.622Z,58.53
2018-01-15T23:25:01.743Z,57.75
2018-01-15T23:27:32.756Z,57.85
2018-01-15T23:29:59.952Z,57.83
2018-01-15T23:34:58.142Z,58.60
2018-01-15T23:39:56.414Z,59.09
2018-01-15T23:47:28.204Z,59.73
2018-01-15T23:49:57.639Z,59.74
2018-01-15T23:52:36.030Z,59.99
2018-01-15T23:57:36.163Z,60.16
